Archival Weather

Republic

Farmingdale, New York (KFRG)

Report from: Wednesday, February 21, 2024 7:53 AM EST
Current time: Monday, June 24, 2024 5:35 AM EDT

Current weather – Weather history – Daily summaries
Weather forecast

Temperature-0.6°C (30.9°F)
Wind chill-3.8°C (25.1°F)
Dew point-5.6°C (21.9°F)
Winds 5 kts (2.6 m/s, 5.8 mph) East (80°)
Visibility10 mi. (16.1 km)
Clouds Scattered clouds 3,400 ft. (1,036 m)
Altimeter30.49 in.Hg (1033 mB)
Relative humidity69 %
Density altitude-2,501 ft. (-762 m)
Sea-level pressure103.3 kPa (1033 mB, 30.49 in.Hg)
Remarks Automated weather observing station without precipitation discriminator
Flight conditions Visual Meteorological Conditions
Raw dataKFRG 211253Z 08005KT 10SM SCT034 M01/M06 A3049 RMK AO1 SLP326 T10061056
An error has occurred. This application may no longer respond until reloaded. Reload 🗙